Time;durP1;ratioP1;P1;durP2;ratioP2;P2;SDS_P1;SDS_P2;PMS_P1;PMS_P2;Temp;Humidity;BMP_temperature;BMP_pressure;BME280_temperature;BME280_humidity;BME280_pressure;Samples;Min_cycle;Max_cycle;Signal;HPM_P1;HPM_P2
2023/09/27 13:07:20;;;;;;;;;;;;;;;;;;5112551;27;19912;-72
2023/09/27 13:09:47;;;;;;;;;;;;;;;;;;5111828;28;19931;-71
2023/09/27 13:12:14;;;;;;;;;;;;;;;;;;5111577;28;19924;-71
2023/09/27 13:14:41;;;;;;;;;;;;;;;;;;5111826;28;20019;-71
2023/09/27 13:17:07;;;;;;;;;;;;;;;;;;5112043;28;19924;-73
2023/09/27 13:19:34;;;;;;;;;;;;;;;;;;5113941;28;19924;-74
2023/09/27 13:22:01;;;;;;;;;;;;;;;;;;5113222;28;19924;-73
2023/09/27 13:24:28;;;;;;;;;;;;;;;;;;5113990;28;20292;-73
2023/09/27 13:26:55;;;;;;;;;;;;;;;;;;5113290;28;19924;-72
2023/09/27 13:29:22;;;;;;;;;;;;;;;;;;5112852;28;19928;-74
2023/09/27 13:31:49;;;;;;;;;;;;;;;;;;5111668;28;19931;-72
2023/09/27 13:34:16;;;;;;;;;;;;;;;;;;5112791;28;19986;-72
2023/09/27 13:36:43;;;;;;;;;;;;;;;;;;5111957;28;20002;-73
2023/09/27 13:39:14;;;;;;;;;;;;;;;;;;5111895;28;19946;-73
2023/09/27 13:41:41;;;;;;;;;;;;;;;;;;5111257;28;19932;-73
2023/09/27 13:44:08;;;;;;;;;;;;;;;;;;5111305;28;19931;-72
2023/09/27 13:46:35;;;;;;;;;;;;;;;;;;5111303;28;19947;-72
2023/09/27 13:49:02;;;;;;;;;;;;;;;;;;5110840;28;19935;-72
2023/09/27 13:51:29;;;;;;;;;;;;;;;;;;5111249;28;20007;-70
2023/09/27 13:53:56;;;;;;;;;;;;;;;;;;5111529;28;19946;-76
2023/09/27 13:56:24;;;;;;;;;;;;;;;;;;5111555;28;20430;-72
2023/09/27 13:58:51;;;;;;;;;;;;;;;;;;5111314;28;20389;-71
2023/09/27 14:01:18;;;;;;;;;;;;;;;;;;5110649;28;20397;-71
2023/09/27 14:03:45;;;;;;;;;;;;;;;;;;5111002;28;19928;-72
2023/09/27 14:06:12;;;;;;;;;;;;;;;;;;5121899;28;20285;-73
2023/09/27 14:08:39;;;;;;;;;;;;;;;;;;5131215;28;19930;-73
2023/09/27 14:11:06;;;;;;;;;;;;;;;;;;5131228;27;20020;-74
2023/09/27 14:13:33;;;;;;;;;;;;;;;;;;5131245;28;19924;-72
2023/09/27 14:16:00;;;;;;;;;;;;;;;;;;5131543;28;19924;-73
2023/09/27 14:18:27;;;;;;;;;;;;;;;;;;5118686;28;19924;-73
2023/09/27 14:20:54;;;;;;;;;;;;;;;;;;5117610;28;19923;-74
2023/09/27 14:23:21;;;;;;;;;;;;;;;;;;5117139;28;20389;-74
2023/09/27 14:25:48;;;;;;;;;;;;;;;;;;5117987;28;19923;-76
2023/09/27 14:28:15;;;;;;;;;;;;;;;;;;5117697;28;19968;-74
2023/09/27 14:30:42;;;;;;;;;;;;;;;;;;5117174;28;20392;-74
2023/09/27 14:33:09;;;;;;;;;;;;;;;;;;5117241;28;19939;-74
2023/09/27 14:35:36;;;;;;;;;;;;;;;;;;5116889;28;20407;-73
2023/09/27 14:38:03;;;;;;;;;;;;;;;;;;5117445;28;20301;-73
2023/09/27 14:40:30;;;;;;;;;;;;;;;;;;5117448;28;19972;-72
2023/09/27 14:42:57;;;;;;;;;;;;;;;;;;5116517;28;19924;-71
2023/09/27 14:45:24;;;;;;;;;;;;;;;;;;5116907;28;19924;-72
2023/09/27 14:47:51;;;;;;;;;;;;;;;;;;5116733;28;19963;-73
2023/09/27 14:50:18;;;;;;;;;;;;;;;;;;5116281;28;19924;-72
2023/09/27 14:52:45;;;;;;;;;;;;;;;;;;5117394;28;19931;-71
2023/09/27 14:55:15;;;;;;;;;;;;;;;;;;5116552;28;19930;-72
2023/09/27 14:57:41;;;;;;;;;;;;;;;;;;5116100;28;20451;-71
2023/09/27 15:00:08;;;;;;;;;;;;;;;;;;5116541;28;19927;-72
2023/09/27 15:02:36;;;;;;;;;;;;;;;;;;5116561;28;19924;-73
2023/09/27 15:05:04;;;;;;;;;;;;;;;;;;5116415;28;19977;-72
2023/09/27 15:07:31;;;;;;;;;;;;;;;;;;5116617;28;20022;-73
2023/09/27 15:09:57;;;;;;;;;;;;;;;;;;5116455;28;19923;-72
2023/09/27 15:12:25;;;;;;;;;;;;;;;;;;5116337;28;19923;-70
2023/09/27 15:14:53;;;;;;;;;;;;;;;;;;5116090;28;19969;-70
2023/09/27 15:17:20;;;;;;;;;;;;;;;;;;5116011;28;20359;-70
2023/09/27 15:19:46;;;;;;;;;;;;;;;;;;5115949;28;19931;-70
2023/09/27 15:22:14;;;;;;;;;;;;;;;;;;5115548;28;20293;-70
2023/09/27 15:24:41;;;;;;;;;;;;;;;;;;5115790;28;19971;-71
2023/09/27 15:27:09;;;;;;;;;;;;;;;;;;5115636;28;19989;-71
2023/09/27 15:29:35;;;;;;;;;;;;;;;;;;5114684;28;19945;-70
2023/09/27 15:32:02;;;;;;;;;;;;;;;;;;5115692;28;19923;-70
2023/09/27 15:34:29;;;;;;;;;;;;;;;;;;5115531;28;19923;-70
2023/09/27 15:36:56;;;;;;;;;;;;;;;;;;5115656;28;19924;-70
2023/09/27 15:39:24;;;;;;;;;;;;;;;;;;5115512;28;20026;-70
2023/09/27 15:41:52;;;;;;;;;;;;;;;;;;5115536;28;19924;-70
2023/09/27 15:44:19;;;;;;;;;;;;;;;;;;5115441;28;19940;-70
2023/09/27 15:46:49;;;;;;;;;;;;;;;;;;5115472;28;20296;-70
2023/09/27 15:49:16;;;;;;;;;;;;;;;;;;5115434;28;19924;-70
2023/09/27 15:51:42;;;;;;;;;;;;;;;;;;5115255;28;20389;-70
2023/09/27 15:54:11;;;;;;;;;;;;;;;;;;5115270;28;20280;-70
2023/09/27 15:56:37;;;;;;;;;;;;;;;;;;5115040;28;20022;-70
2023/09/27 15:59:06;;;;;;;;;;;;;;;;;;5115350;28;19924;-70
2023/09/27 16:01:34;;;;;;;;;;;;;;;;;;5114945;28;19973;-70
2023/09/27 16:04:00;;;;;;;;;;;;;;;;;;5114708;28;20411;-70
2023/09/27 16:06:29;;;;;;;;;;;;;;;;;;5114612;28;19924;-70
2023/09/27 16:08:56;;;;;;;;;;;;;;;;;;5115008;28;20312;-70
2023/09/27 16:11:23;;;;;;;;;;;;;;;;;;5114924;28;19927;-70
2023/09/27 16:13:50;;;;;;;;;;;;;;;;;;5114540;28;20308;-70
2023/09/27 16:16:17;;;;;;;;;;;;;;;;;;5115505;28;20011;-70
2023/09/27 16:18:44;;;;;;;;;;;;;;;;;;5114828;28;20077;-71
2023/09/27 16:21:11;;;;;;;;;;;;;;;;;;5114840;28;19923;-71
2023/09/27 16:23:38;;;;;;;;;;;;;;;;;;5115063;28;19931;-71
2023/09/27 16:26:05;;;;;;;;;;;;;;;;;;5114648;28;19932;-70
2023/09/27 16:28:32;;;;;;;;;;;;;;;;;;5114616;28;19931;-70
2023/09/27 16:30:59;;;;;;;;;;;;;;;;;;5114333;28;20381;-70
2023/09/27 16:33:26;;;;;;;;;;;;;;;;;;5114695;28;20341;-69
2023/09/27 16:35:53;;;;;;;;;;;;;;;;;;5114535;28;19931;-69
2023/09/27 16:38:20;;;;;;;;;;;;;;;;;;5114805;28;20308;-71
2023/09/27 16:40:46;;;;;;;;;;;;;;;;;;5114353;28;19924;-70
2023/09/27 16:43:14;;;;;;;;;;;;;;;;;;5114658;28;20032;-70
2023/09/27 16:45:40;;;;;;;;;;;;;;;;;;5114593;28;20026;-71
2023/09/27 16:48:07;;;;;;;;;;;;;;;;;;5114322;28;20395;-71
2023/09/27 16:50:34;;;;;;;;;;;;;;;;;;5114601;28;19932;-70
2023/09/27 16:53:02;;;;;;;;;;;;;;;;;;5114685;28;19931;-71
2023/09/27 16:55:28;;;;;;;;;;;;;;;;;;5114749;28;19960;-70
2023/09/27 16:57:55;;;;;;;;;;;;;;;;;;5114598;28;19924;-70
2023/09/27 17:00:22;;;;;;;;;;;;;;;;;;5114799;28;19947;-69
2023/09/27 17:02:49;;;;;;;;;;;;;;;;;;5114364;28;19924;-69
2023/09/27 17:05:16;;;;;;;;;;;;;;;;;;5114184;28;19931;-71
2023/09/27 17:07:43;;;;;;;;;;;;;;;;;;5114495;28;19928;-71
2023/09/27 17:10:10;;;;;;;;;;;;;;;;;;5114465;28;19924;-72
2023/09/27 17:12:37;;;;;;;;;;;;;;;;;;5114286;28;19923;-71
2023/09/27 17:15:04;;;;;;;;;;;;;;;;;;5114193;28;20320;-71
2023/09/27 17:17:31;;;;;;;;;;;;;;;;;;5114460;28;19931;-71
2023/09/27 17:19:58;;;;;;;;;;;;;;;;;;5114016;28;19924;-73
2023/09/27 17:22:26;;;;;;;;;;;;;;;;;;5114244;28;19947;-71
2023/09/27 17:24:53;;;;;;;;;;;;;;;;;;5114521;28;19931;-73
2023/09/27 17:27:21;;;;;;;;;;;;;;;;;;5114403;28;19931;-72
2023/09/27 17:29:48;;;;;;;;;;;;;;;;;;5113952;28;19982;-72
2023/09/27 17:32:15;;;;;;;;;;;;;;;;;;5114305;28;19928;-72
2023/09/27 17:34:42;;;;;;;;;;;;;;;;;;5114204;28;20494;-72
2023/09/27 17:37:09;;;;;;;;;;;;;;;;;;5114288;28;19924;-72
2023/09/27 17:39:37;;;;;;;;;;;;;;;;;;5114602;28;19924;-71
2023/09/27 17:42:05;;;;;;;;;;;;;;;;;;5114225;28;19928;-72
2023/09/27 17:44:32;;;;;;;;;;;;;;;;;;5113890;28;20364;-74
2023/09/27 17:46:59;;;;;;;;;;;;;;;;;;5115147;28;19924;-74
2023/09/27 17:49:26;;;;;;;;;;;;;;;;;;5114336;28;20308;-73
2023/09/27 17:51:54;;;;;;;;;;;;;;;;;;5114385;28;19924;-72
2023/09/27 17:54:21;;;;;;;;;;;;;;;;;;5118826;28;19924;-71
2023/09/27 17:56:50;;;;;;;;;;;;;;;;;;5117843;28;20047;-72
2023/09/27 17:59:17;;;;;;;;;;;;;;;;;;5117687;28;19968;-72
2023/09/27 18:01:43;;;;;;;;;;;;;;;;;;5117850;28;19954;-73
2023/09/27 18:04:10;;;;;;;;;;;;;;;;;;5117656;28;19924;-72
2023/09/27 18:06:37;;;;;;;;;;;;;;;;;;5117333;28;19924;-73
2023/09/27 18:09:04;;;;;;;;;;;;;;;;;;5118088;28;19924;-73
2023/09/27 18:11:31;;;;;;;;;;;;;;;;;;5118435;28;20354;-74
2023/09/27 18:13:58;;;;;;;;;;;;;;;;;;5117727;28;20424;-76
2023/09/27 18:16:25;;;;;;;;;;;;;;;;;;5117532;28;19954;-75
2023/09/27 18:18:54;;;;;;;;;;;;;;;;;;5117561;28;19930;-75
2023/09/27 18:21:21;;;;;;;;;;;;;;;;;;5155627;22;20292;-73
2023/09/27 18:23:49;;;;;;;;;;;;;;;;;;5097804;28;19924;-72
2023/09/27 18:26:16;;;;;;;;;;;;;;;;;;5097226;28;19930;-71
2023/09/27 18:28:42;;;;;;;;;;;;;;;;;;5097231;28;19933;-75
2023/09/27 18:31:10;;;;;;;;;;;;;;;;;;5097566;28;19951;-74
2023/09/27 18:33:37;;;;;;;;;;;;;;;;;;5098194;28;19985;-73
2023/09/27 18:36:04;;;;;;;;;;;;;;;;;;5097365;28;19993;-72
2023/09/27 18:38:31;;;;;;;;;;;;;;;;;;5096794;28;20349;-72
2023/09/27 18:40:58;;;;;;;;;;;;;;;;;;5097558;28;19925;-73
2023/09/27 18:43:25;;;;;;;;;;;;;;;;;;5096710;28;19928;-73
2023/09/27 18:45:55;;;;;;;;;;;;;;;;;;5097187;28;19931;-73
2023/09/27 18:48:22;;;;;;;;;;;;;;;;;;5096862;28;20016;-71
2023/09/27 18:50:52;;;;;;;;;;;;;;;;;;5096967;28;20356;-73
2023/09/27 18:53:19;;;;;;;;;;;;;;;;;;5097141;28;19924;-70
2023/09/27 18:55:46;;;;;;;;;;;;;;;;;;5096623;28;19974;-71
2023/09/27 18:58:14;;;;;;;;;;;;;;;;;;5096029;28;20385;-71
2023/09/27 19:00:41;;;;;;;;;;;;;;;;;;5096400;28;19924;-73
2023/09/27 19:03:08;;;;;;;;;;;;;;;;;;5096091;28;19924;-68
2023/09/27 19:05:35;;;;;;;;;;;;;;;;;;5095967;28;19935;-71
2023/09/27 19:08:03;;;;;;;;;;;;;;;;;;5095912;28;19924;-69
2023/09/27 19:10:30;;;;;;;;;;;;;;;;;;5096133;28;19924;-66
2023/09/27 19:12:57;;;;;;;;;;;;;;;;;;5095584;28;20296;-70
2023/09/27 19:15:24;;;;;;;;;;;;;;;;;;5095811;28;20014;-71
2023/09/27 19:17:51;;;;;;;;;;;;;;;;;;5095545;28;19924;-71
2023/09/27 19:20:18;;;;;;;;;;;;;;;;;;5095281;28;19924;-70
2023/09/27 19:22:45;;;;;;;;;;;;;;;;;;5096587;28;19974;-71
2023/09/27 19:25:13;;;;;;;;;;;;;;;;;;5096286;28;20285;-70
2023/09/27 19:27:40;;;;;;;;;;;;;;;;;;5095034;28;19947;-71
2023/09/27 19:30:08;;;;;;;;;;;;;;;;;;5095155;28;19990;-71
2023/09/27 19:32:35;;;;;;;;;;;;;;;;;;5095230;28;19969;-70
2023/09/27 19:35:02;;;;;;;;;;;;;;;;;;5094851;28;20411;-71
2023/09/27 19:37:29;;;;;;;;;;;;;;;;;;5095384;28;19924;-71
2023/09/27 19:39:56;;;;;;;;;;;;;;;;;;5095175;28;19943;-70
2023/09/27 19:42:23;;;;;;;;;;;;;;;;;;5095463;28;19924;-70
2023/09/27 19:44:50;;;;;;;;;;;;;;;;;;5095803;28;19924;-71
2023/09/27 19:47:17;;;;;;;;;;;;;;;;;;5095187;28;19924;-68
2023/09/27 19:49:44;;;;;;;;;;;;;;;;;;5095196;28;19924;-67
2023/09/27 19:52:12;;;;;;;;;;;;;;;;;;5094970;28;19924;-68
2023/09/27 19:54:38;;;;;;;;;;;;;;;;;;5094662;28;19974;-68
2023/09/27 19:57:05;;;;;;;;;;;;;;;;;;5094958;28;19923;-67
2023/09/27 19:59:32;;;;;;;;;;;;;;;;;;5095057;28;19928;-67
2023/09/27 20:01:59;;;;;;;;;;;;;;;;;;5094775;28;19924;-67
2023/09/27 20:04:27;;;;;;;;;;;;;;;;;;5094957;28;19928;-67
2023/09/27 20:06:54;;;;;;;;;;;;;;;;;;5094847;28;19924;-68
2023/09/27 20:09:21;;;;;;;;;;;;;;;;;;5094767;28;19947;-67
2023/09/27 20:11:47;;;;;;;;;;;;;;;;;;5094739;28;19924;-68
2023/09/27 20:14:14;;;;;;;;;;;;;;;;;;5094646;28;19924;-67
2023/09/27 20:16:42;;;;;;;;;;;;;;;;;;5094072;28;19947;-68
2023/09/27 20:19:08;;;;;;;;;;;;;;;;;;5094601;28;19924;-68
2023/09/27 20:21:35;;;;;;;;;;;;;;;;;;5094243;28;19931;-67
2023/09/27 20:24:02;;;;;;;;;;;;;;;;;;5094286;28;19928;-70
2023/09/27 20:26:29;;;;;;;;;;;;;;;;;;5094323;28;20388;-71
